Westernport, MD (21562)

6:59 AM EDT on August 29, 2015 (GMT -0400)
Horse Rock | | Change Station
CLOSE
Current Station
Personal Weather Station
Location: Westernport, MD
Elevation: 1550 ft
Nearby Weather Stations

Elev 1550 ft 39.48 °N, 79.03 °W | Updated 3 hours ago

Clear
Clear
56.8 °F
Feels Like 56.8 °F
N
0.0
Wind Variable Wind from SSE
Gusts 5.0 mph

Today
High -- | Low -- °F
--% Chance of Precip.
Yesterday
High -- | Low -- °F
Precip. -- in
6:41 AM 7:51 PM
Full, 100% visible
Pressure 30.24 in
Visibility 7.0 miles
Clouds Clear
Dew Point 56 °F
Humidity 99%
Rainfall 0.00 in
Snow Depth Not available.
UV 0 out of 12
Pollen 9.30 out of 12
Air Quality Not available.
Flu Activity Not available.
METAR KCBE 291047Z AUTO 01003KT 7SM CLR 15/15 A3024 RMK AO1
Pressure 30.24 in
Visibility 7.0 miles
Clouds Clear
Dew Point 56 °F
Humidity 99%
Rainfall 0.00 in
Snow Depth Not available.
UV 0 out of 12
Pollen 9.30 out of 12
Air Quality Not available.
Flu Activity Not available.
METAR KCBE 291047Z AUTO 01003KT 7SM CLR 15/15 A3024 RMK AO1

10-Day Weather Forecast

×

Almanac

Astronomy

Aug. 29, 2015 Rise Set
Actual Time
Civil Twilight
Nautical Twilight
Astronomical Twilight
Moon
Length of Visible Light
Length of Day
Tomorrow will be .
, % of the Moon is Illuminated

Today's Extremes

State Highs State Lows

Community

WunderPhotos

Upload Photos

1,850,633 photos uploaded!

WunderBlogs® & News

Nearby

Air Quality

  Air Quality AQ Index Pollutant
Not available.

Snow Depth

Station Depth Elevation

Earthquake Activity

City Distance Mag. Time & Date
Minimum magnitude displayed is 2.5.

Coastal Water Temperatures

Place Temperature

Stations

Nearby Weather Stations

Station Location Temp. Windchill Dew Point Humidity Wind Precip. Elev Updated Type